sensor_id;sensor_type;location;lat;lon;timestamp;P1;durP1;ratioP1;P2;durP2;ratioP2
30743;SDS011;17486;46.738;7.622;2022-12-18T00:01:03;59.58;;;32.75;;
30743;SDS011;17486;46.738;7.622;2022-12-18T00:03:39;159.85;;;90.35;;
30743;SDS011;17486;46.738;7.622;2022-12-18T00:06:05;161.07;;;86.47;;
30743;SDS011;17486;46.738;7.622;2022-12-18T00:08:30;182.02;;;100.65;;
30743;SDS011;17486;46.738;7.622;2022-12-18T00:11:02;132.95;;;71.90;;
30743;SDS011;17486;46.738;7.622;2022-12-18T00:13:36;81.10;;;44.72;;
30743;SDS011;17486;46.738;7.622;2022-12-18T00:16:06;72.03;;;39.13;;
30743;SDS011;17486;46.738;7.622;2022-12-18T00:18:33;65.07;;;35.70;;
30743;SDS011;17486;46.738;7.622;2022-12-18T00:20:59;63.33;;;33.22;;
30743;SDS011;17486;46.738;7.622;2022-12-18T00:23:26;56.60;;;30.90;;
30743;SDS011;17486;46.738;7.622;2022-12-18T00:25:52;54.95;;;31.30;;
30743;SDS011;17486;46.738;7.622;2022-12-18T00:28:18;57.70;;;31.35;;
30743;SDS011;17486;46.738;7.622;2022-12-18T00:30:43;58.83;;;30.77;;
30743;SDS011;17486;46.738;7.622;2022-12-18T00:33:09;57.80;;;32.17;;
30743;SDS011;17486;46.738;7.622;2022-12-18T00:35:34;54.80;;;30.25;;
30743;SDS011;17486;46.738;7.622;2022-12-18T00:38:00;51.08;;;28.77;;
30743;SDS011;17486;46.738;7.622;2022-12-18T00:40:25;52.67;;;29.10;;
30743;SDS011;17486;46.738;7.622;2022-12-18T00:42:50;50.72;;;28.48;;
30743;SDS011;17486;46.738;7.622;2022-12-18T00:45:23;49.80;;;28.15;;
30743;SDS011;17486;46.738;7.622;2022-12-18T00:47:52;51.97;;;28.52;;
30743;SDS011;17486;46.738;7.622;2022-12-18T00:50:18;54.40;;;29.40;;
30743;SDS011;17486;46.738;7.622;2022-12-18T00:52:44;62.97;;;32.35;;
30743;SDS011;17486;46.738;7.622;2022-12-18T00:55:09;58.25;;;31.58;;
30743;SDS011;17486;46.738;7.622;2022-12-18T00:57:35;57.78;;;31.65;;
30743;SDS011;17486;46.738;7.622;2022-12-18T01:00:01;56.53;;;29.70;;
30743;SDS011;17486;46.738;7.622;2022-12-18T01:02:27;56.22;;;28.48;;
30743;SDS011;17486;46.738;7.622;2022-12-18T01:04:53;52.90;;;29.20;;
30743;SDS011;17486;46.738;7.622;2022-12-18T01:07:18;53.58;;;27.77;;
30743;SDS011;17486;46.738;7.622;2022-12-18T01:09:44;50.90;;;28.58;;
30743;SDS011;17486;46.738;7.622;2022-12-18T01:12:09;48.72;;;27.92;;
30743;SDS011;17486;46.738;7.622;2022-12-18T01:14:34;59.22;;;31.10;;
30743;SDS011;17486;46.738;7.622;2022-12-18T01:17:01;52.42;;;29.70;;
30743;SDS011;17486;46.738;7.622;2022-12-18T01:19:28;54.20;;;29.70;;
30743;SDS011;17486;46.738;7.622;2022-12-18T01:21:54;54.03;;;30.08;;
30743;SDS011;17486;46.738;7.622;2022-12-18T01:24:19;54.88;;;29.73;;
30743;SDS011;17486;46.738;7.622;2022-12-18T01:26:44;52.20;;;27.25;;
30743;SDS011;17486;46.738;7.622;2022-12-18T01:29:10;41.28;;;23.77;;
30743;SDS011;17486;46.738;7.622;2022-12-18T01:31:35;37.13;;;20.23;;
30743;SDS011;17486;46.738;7.622;2022-12-18T01:34:01;30.95;;;17.88;;
30743;SDS011;17486;46.738;7.622;2022-12-18T01:36:29;28.42;;;17.50;;
30743;SDS011;17486;46.738;7.622;2022-12-18T01:38:58;29.98;;;16.92;;
30743;SDS011;17486;46.738;7.622;2022-12-18T01:41:26;29.02;;;15.80;;
30743;SDS011;17486;46.738;7.622;2022-12-18T01:49:53;26.15;;;15.35;;
30743;SDS011;17486;46.738;7.622;2022-12-18T01:52:21;24.63;;;14.65;;
30743;SDS011;17486;46.738;7.622;2022-12-18T01:54:49;32.85;;;18.15;;
30743;SDS011;17486;46.738;7.622;2022-12-18T01:57:16;34.35;;;19.17;;
30743;SDS011;17486;46.738;7.622;2022-12-18T01:59:42;35.00;;;19.52;;
30743;SDS011;17486;46.738;7.622;2022-12-18T02:02:10;35.35;;;19.23;;
30743;SDS011;17486;46.738;7.622;2022-12-18T02:04:36;35.03;;;20.40;;
30743;SDS011;17486;46.738;7.622;2022-12-18T02:09:47;40.90;;;21.88;;
30743;SDS011;17486;46.738;7.622;2022-12-18T02:12:17;36.40;;;20.90;;
30743;SDS011;17486;46.738;7.622;2022-12-18T02:14:52;37.80;;;20.65;;
30743;SDS011;17486;46.738;7.622;2022-12-18T02:17:35;39.33;;;22.20;;
30743;SDS011;17486;46.738;7.622;2022-12-18T02:22:42;43.55;;;24.42;;
30743;SDS011;17486;46.738;7.622;2022-12-18T02:28:18;42.35;;;23.42;;
30743;SDS011;17486;46.738;7.622;2022-12-18T02:30:47;41.63;;;23.30;;
30743;SDS011;17486;46.738;7.622;2022-12-18T02:33:15;37.70;;;21.13;;
30743;SDS011;17486;46.738;7.622;2022-12-18T02:35:43;36.28;;;20.75;;
30743;SDS011;17486;46.738;7.622;2022-12-18T02:38:10;35.00;;;21.55;;
30743;SDS011;17486;46.738;7.622;2022-12-18T02:40:38;36.55;;;21.38;;
30743;SDS011;17486;46.738;7.622;2022-12-18T02:43:12;36.15;;;20.92;;
30743;SDS011;17486;46.738;7.622;2022-12-18T02:51:51;38.37;;;21.67;;
30743;SDS011;17486;46.738;7.622;2022-12-18T02:56:51;36.17;;;20.08;;
30743;SDS011;17486;46.738;7.622;2022-12-18T02:59:43;36.38;;;20.90;;
30743;SDS011;17486;46.738;7.622;2022-12-18T03:05:20;33.88;;;21.02;;
30743;SDS011;17486;46.738;7.622;2022-12-18T03:12:56;40.47;;;20.90;;
30743;SDS011;17486;46.738;7.622;2022-12-18T03:15:30;40.92;;;23.73;;
30743;SDS011;17486;46.738;7.622;2022-12-18T03:18:07;39.60;;;21.58;;
30743;SDS011;17486;46.738;7.622;2022-12-18T03:20:47;40.13;;;22.92;;
30743;SDS011;17486;46.738;7.622;2022-12-18T03:23:15;39.90;;;23.30;;
30743;SDS011;17486;46.738;7.622;2022-12-18T03:25:44;41.50;;;23.10;;
30743;SDS011;17486;46.738;7.622;2022-12-18T03:28:15;37.72;;;22.88;;
30743;SDS011;17486;46.738;7.622;2022-12-18T03:30:45;40.35;;;23.40;;
30743;SDS011;17486;46.738;7.622;2022-12-18T03:33:17;37.13;;;21.15;;
30743;SDS011;17486;46.738;7.622;2022-12-18T03:35:46;38.67;;;23.50;;
30743;SDS011;17486;46.738;7.622;2022-12-18T03:38:12;39.90;;;22.25;;
30743;SDS011;17486;46.738;7.622;2022-12-18T03:46:00;35.95;;;20.85;;
30743;SDS011;17486;46.738;7.622;2022-12-18T03:48:32;38.65;;;22.48;;
30743;SDS011;17486;46.738;7.622;2022-12-18T03:54:08;38.88;;;21.63;;
30743;SDS011;17486;46.738;7.622;2022-12-18T03:56:37;37.53;;;21.67;;
30743;SDS011;17486;46.738;7.622;2022-12-18T03:59:07;38.15;;;22.58;;
30743;SDS011;17486;46.738;7.622;2022-12-18T04:01:35;38.70;;;22.17;;
30743;SDS011;17486;46.738;7.622;2022-12-18T04:04:04;37.10;;;21.25;;
30743;SDS011;17486;46.738;7.622;2022-12-18T04:06:32;38.92;;;22.90;;
30743;SDS011;17486;46.738;7.622;2022-12-18T04:08:57;34.70;;;20.42;;
30743;SDS011;17486;46.738;7.622;2022-12-18T04:11:24;36.20;;;22.40;;
30743;SDS011;17486;46.738;7.622;2022-12-18T04:13:49;36.42;;;22.48;;
30743;SDS011;17486;46.738;7.622;2022-12-18T04:16:15;34.67;;;20.88;;
30743;SDS011;17486;46.738;7.622;2022-12-18T04:18:40;36.20;;;20.98;;
30743;SDS011;17486;46.738;7.622;2022-12-18T04:21:05;38.30;;;22.35;;
30743;SDS011;17486;46.738;7.622;2022-12-18T04:23:31;36.33;;;21.98;;
30743;SDS011;17486;46.738;7.622;2022-12-18T04:25:56;39.58;;;22.55;;
30743;SDS011;17486;46.738;7.622;2022-12-18T04:28:22;35.85;;;21.25;;
30743;SDS011;17486;46.738;7.622;2022-12-18T04:30:47;36.22;;;21.80;;
30743;SDS011;17486;46.738;7.622;2022-12-18T04:33:13;36.28;;;21.35;;
30743;SDS011;17486;46.738;7.622;2022-12-18T04:35:41;35.05;;;21.08;;
30743;SDS011;17486;46.738;7.622;2022-12-18T04:38:07;37.05;;;21.65;;
30743;SDS011;17486;46.738;7.622;2022-12-18T04:40:33;38.00;;;21.38;;
30743;SDS011;17486;46.738;7.622;2022-12-18T04:42:59;33.97;;;20.58;;
30743;SDS011;17486;46.738;7.622;2022-12-18T04:45:24;35.10;;;20.90;;
30743;SDS011;17486;46.738;7.622;2022-12-18T04:47:50;34.15;;;20.10;;
30743;SDS011;17486;46.738;7.622;2022-12-18T04:50:15;36.03;;;21.75;;
30743;SDS011;17486;46.738;7.622;2022-12-18T04:52:40;35.80;;;21.50;;
30743;SDS011;17486;46.738;7.622;2022-12-18T04:55:06;34.92;;;20.73;;
30743;SDS011;17486;46.738;7.622;2022-12-18T04:57:32;32.00;;;19.52;;
30743;SDS011;17486;46.738;7.622;2022-12-18T04:59:57;35.05;;;20.38;;
30743;SDS011;17486;46.738;7.622;2022-12-18T05:02:23;33.50;;;19.65;;
30743;SDS011;17486;46.738;7.622;2022-12-18T05:04:48;32.60;;;19.80;;
30743;SDS011;17486;46.738;7.622;2022-12-18T05:07:13;36.38;;;21.35;;
30743;SDS011;17486;46.738;7.622;2022-12-18T05:09:39;35.58;;;21.20;;
30743;SDS011;17486;46.738;7.622;2022-12-18T05:12:04;36.42;;;22.13;;
30743;SDS011;17486;46.738;7.622;2022-12-18T05:14:30;32.65;;;21.42;;
30743;SDS011;17486;46.738;7.622;2022-12-18T05:16:55;33.85;;;20.40;;
30743;SDS011;17486;46.738;7.622;2022-12-18T05:19:21;34.85;;;20.35;;
30743;SDS011;17486;46.738;7.622;2022-12-18T05:21:46;35.33;;;20.73;;
30743;SDS011;17486;46.738;7.622;2022-12-18T05:24:11;37.00;;;20.13;;
30743;SDS011;17486;46.738;7.622;2022-12-18T05:26:37;34.85;;;20.80;;
30743;SDS011;17486;46.738;7.622;2022-12-18T05:29:02;34.47;;;20.77;;
30743;SDS011;17486;46.738;7.622;2022-12-18T05:31:28;36.00;;;20.52;;
30743;SDS011;17486;46.738;7.622;2022-12-18T05:33:53;34.63;;;21.83;;
30743;SDS011;17486;46.738;7.622;2022-12-18T05:36:19;36.85;;;20.65;;
30743;SDS011;17486;46.738;7.622;2022-12-18T05:38:44;33.35;;;20.58;;
30743;SDS011;17486;46.738;7.622;2022-12-18T05:41:10;32.55;;;20.27;;
30743;SDS011;17486;46.738;7.622;2022-12-18T05:43:36;34.40;;;20.77;;
30743;SDS011;17486;46.738;7.622;2022-12-18T05:46:06;32.70;;;19.58;;
30743;SDS011;17486;46.738;7.622;2022-12-18T05:48:33;33.97;;;19.60;;
30743;SDS011;17486;46.738;7.622;2022-12-18T05:51:06;33.92;;;20.13;;
30743;SDS011;17486;46.738;7.622;2022-12-18T05:53:32;35.08;;;19.73;;
30743;SDS011;17486;46.738;7.622;2022-12-18T05:56:05;35.67;;;21.27;;
30743;SDS011;17486;46.738;7.622;2022-12-18T05:58:33;34.22;;;20.33;;
30743;SDS011;17486;46.738;7.622;2022-12-18T06:01:05;34.65;;;20.10;;
30743;SDS011;17486;46.738;7.622;2022-12-18T06:03:36;35.42;;;21.42;;
30743;SDS011;17486;46.738;7.622;2022-12-18T06:06:01;36.50;;;21.20;;
30743;SDS011;17486;46.738;7.622;2022-12-18T06:08:27;36.50;;;21.92;;
30743;SDS011;17486;46.738;7.622;2022-12-18T06:10:53;34.95;;;20.88;;
30743;SDS011;17486;46.738;7.622;2022-12-18T06:13:19;34.88;;;21.30;;
30743;SDS011;17486;46.738;7.622;2022-12-18T06:15:45;35.55;;;21.08;;
30743;SDS011;17486;46.738;7.622;2022-12-18T06:18:10;36.08;;;20.38;;
30743;SDS011;17486;46.738;7.622;2022-12-18T06:20:36;32.15;;;19.42;;
30743;SDS011;17486;46.738;7.622;2022-12-18T06:23:02;23.85;;;14.23;;
30743;SDS011;17486;46.738;7.622;2022-12-18T06:25:28;22.20;;;13.13;;
30743;SDS011;17486;46.738;7.622;2022-12-18T06:27:54;17.00;;;11.20;;
30743;SDS011;17486;46.738;7.622;2022-12-18T06:30:19;17.95;;;11.20;;
30743;SDS011;17486;46.738;7.622;2022-12-18T06:32:45;17.67;;;11.32;;
30743;SDS011;17486;46.738;7.622;2022-12-18T06:35:12;17.75;;;10.68;;
30743;SDS011;17486;46.738;7.622;2022-12-18T06:37:38;20.77;;;12.13;;
30743;SDS011;17486;46.738;7.622;2022-12-18T06:40:03;21.73;;;11.93;;
30743;SDS011;17486;46.738;7.622;2022-12-18T06:42:30;20.08;;;11.30;;
30743;SDS011;17486;46.738;7.622;2022-12-18T06:44:55;14.18;;;8.75;;
30743;SDS011;17486;46.738;7.622;2022-12-18T06:47:20;10.90;;;7.15;;
30743;SDS011;17486;46.738;7.622;2022-12-18T06:49:46;12.20;;;6.20;;
30743;SDS011;17486;46.738;7.622;2022-12-18T06:52:11;13.85;;;7.00;;
30743;SDS011;17486;46.738;7.622;2022-12-18T06:54:37;11.55;;;7.05;;
30743;SDS011;17486;46.738;7.622;2022-12-18T06:57:02;14.10;;;8.30;;
30743;SDS011;17486;46.738;7.622;2022-12-18T06:59:29;16.63;;;9.90;;
30743;SDS011;17486;46.738;7.622;2022-12-18T07:01:54;19.73;;;11.15;;
30743;SDS011;17486;46.738;7.622;2022-12-18T07:04:20;20.73;;;11.48;;
30743;SDS011;17486;46.738;7.622;2022-12-18T07:06:45;20.60;;;11.48;;
30743;SDS011;17486;46.738;7.622;2022-12-18T07:09:10;19.45;;;11.10;;
30743;SDS011;17486;46.738;7.622;2022-12-18T07:11:36;18.90;;;10.88;;
30743;SDS011;17486;46.738;7.622;2022-12-18T07:14:01;18.50;;;10.90;;
30743;SDS011;17486;46.738;7.622;2022-12-18T07:16:27;18.60;;;10.88;;
30743;SDS011;17486;46.738;7.622;2022-12-18T07:18:55;18.13;;;10.82;;
30743;SDS011;17486;46.738;7.622;2022-12-18T07:21:21;21.67;;;11.70;;
30743;SDS011;17486;46.738;7.622;2022-12-18T07:23:48;18.30;;;10.95;;
30743;SDS011;17486;46.738;7.622;2022-12-18T07:26:14;21.35;;;12.60;;
30743;SDS011;17486;46.738;7.622;2022-12-18T07:28:42;24.42;;;14.90;;
30743;SDS011;17486;46.738;7.622;2022-12-18T07:31:11;29.65;;;17.45;;
30743;SDS011;17486;46.738;7.622;2022-12-18T07:33:38;35.22;;;19.67;;
30743;SDS011;17486;46.738;7.622;2022-12-18T07:36:04;33.75;;;19.42;;
30743;SDS011;17486;46.738;7.622;2022-12-18T07:38:32;36.17;;;19.30;;
30743;SDS011;17486;46.738;7.622;2022-12-18T07:41:17;32.40;;;18.70;;
30743;SDS011;17486;46.738;7.622;2022-12-18T07:43:43;35.60;;;19.00;;
30743;SDS011;17486;46.738;7.622;2022-12-18T07:46:09;37.13;;;20.10;;
30743;SDS011;17486;46.738;7.622;2022-12-18T07:48:36;33.92;;;20.17;;
30743;SDS011;17486;46.738;7.622;2022-12-18T07:51:02;32.70;;;19.90;;
30743;SDS011;17486;46.738;7.622;2022-12-18T07:53:29;33.08;;;19.50;;
30743;SDS011;17486;46.738;7.622;2022-12-18T07:55:59;33.72;;;19.33;;
30743;SDS011;17486;46.738;7.622;2022-12-18T07:58:27;35.28;;;20.73;;
30743;SDS011;17486;46.738;7.622;2022-12-18T08:00:53;31.13;;;18.67;;
30743;SDS011;17486;46.738;7.622;2022-12-18T08:03:18;34.22;;;19.52;;
30743;SDS011;17486;46.738;7.622;2022-12-18T08:05:44;34.25;;;19.63;;
30743;SDS011;17486;46.738;7.622;2022-12-18T08:08:10;32.25;;;18.70;;
30743;SDS011;17486;46.738;7.622;2022-12-18T08:10:35;30.33;;;17.45;;
30743;SDS011;17486;46.738;7.622;2022-12-18T08:13:02;31.88;;;18.85;;
30743;SDS011;17486;46.738;7.622;2022-12-18T08:15:27;33.08;;;18.70;;
30743;SDS011;17486;46.738;7.622;2022-12-18T08:17:55;34.47;;;19.80;;
30743;SDS011;17486;46.738;7.622;2022-12-18T08:20:21;30.45;;;19.08;;
30743;SDS011;17486;46.738;7.622;2022-12-18T08:22:48;32.72;;;18.63;;
30743;SDS011;17486;46.738;7.622;2022-12-18T08:25:13;30.25;;;18.73;;
30743;SDS011;17486;46.738;7.622;2022-12-18T08:27:39;30.15;;;18.45;;
30743;SDS011;17486;46.738;7.622;2022-12-18T08:30:05;35.40;;;20.05;;
30743;SDS011;17486;46.738;7.622;2022-12-18T08:32:31;30.92;;;18.48;;
30743;SDS011;17486;46.738;7.622;2022-12-18T08:34:57;30.25;;;18.50;;
30743;SDS011;17486;46.738;7.622;2022-12-18T08:37:23;32.63;;;18.58;;
30743;SDS011;17486;46.738;7.622;2022-12-18T08:39:49;33.70;;;18.33;;
30743;SDS011;17486;46.738;7.622;2022-12-18T08:42:14;31.05;;;17.20;;
30743;SDS011;17486;46.738;7.622;2022-12-18T08:44:58;32.45;;;17.98;;
30743;SDS011;17486;46.738;7.622;2022-12-18T08:47:23;28.83;;;17.67;;
30743;SDS011;17486;46.738;7.622;2022-12-18T08:49:50;31.58;;;18.05;;
30743;SDS011;17486;46.738;7.622;2022-12-18T08:52:16;29.67;;;16.60;;
30743;SDS011;17486;46.738;7.622;2022-12-18T08:54:41;32.22;;;17.60;;
30743;SDS011;17486;46.738;7.622;2022-12-18T08:57:07;30.75;;;17.67;;
30743;SDS011;17486;46.738;7.622;2022-12-18T08:59:32;30.80;;;18.15;;
30743;SDS011;17486;46.738;7.622;2022-12-18T09:01:57;29.02;;;17.88;;
30743;SDS011;17486;46.738;7.622;2022-12-18T09:04:23;28.45;;;17.23;;
30743;SDS011;17486;46.738;7.622;2022-12-18T09:06:48;28.10;;;16.58;;
30743;SDS011;17486;46.738;7.622;2022-12-18T09:09:14;28.83;;;17.90;;
30743;SDS011;17486;46.738;7.622;2022-12-18T09:11:39;31.20;;;17.35;;
30743;SDS011;17486;46.738;7.622;2022-12-18T09:14:05;30.85;;;17.85;;
30743;SDS011;17486;46.738;7.622;2022-12-18T09:16:30;43.45;;;26.20;;
30743;SDS011;17486;46.738;7.622;2022-12-18T09:18:56;163.10;;;95.13;;
30743;SDS011;17486;46.738;7.622;2022-12-18T09:21:27;145.15;;;83.93;;
30743;SDS011;17486;46.738;7.622;2022-12-18T09:23:54;226.30;;;126.60;;
30743;SDS011;17486;46.738;7.622;2022-12-18T09:26:21;156.30;;;83.65;;
30743;SDS011;17486;46.738;7.622;2022-12-18T09:28:47;96.97;;;51.15;;
30743;SDS011;17486;46.738;7.622;2022-12-18T09:31:13;50.00;;;26.73;;
30743;SDS011;17486;46.738;7.622;2022-12-18T09:33:39;33.53;;;19.02;;
30743;SDS011;17486;46.738;7.622;2022-12-18T09:36:06;30.50;;;17.23;;
30743;SDS011;17486;46.738;7.622;2022-12-18T09:38:34;27.45;;;15.95;;
30743;SDS011;17486;46.738;7.622;2022-12-18T09:41:03;25.60;;;14.73;;
30743;SDS011;17486;46.738;7.622;2022-12-18T09:43:55;23.40;;;15.52;;
30743;SDS011;17486;46.738;7.622;2022-12-18T09:46:26;23.20;;;14.15;;
30743;SDS011;17486;46.738;7.622;2022-12-18T09:48:56;22.23;;;14.20;;
30743;SDS011;17486;46.738;7.622;2022-12-18T09:51:27;25.23;;;14.15;;
30743;SDS011;17486;46.738;7.622;2022-12-18T09:54:06;24.40;;;15.35;;
30743;SDS011;17486;46.738;7.622;2022-12-18T09:56:39;25.98;;;15.43;;
30743;SDS011;17486;46.738;7.622;2022-12-18T09:59:53;26.63;;;15.18;;
30743;SDS011;17486;46.738;7.622;2022-12-18T10:01:58;24.07;;;15.67;;
30743;SDS011;17486;46.738;7.622;2022-12-18T10:04:24;29.70;;;16.42;;
30743;SDS011;17486;46.738;7.622;2022-12-18T10:09:36;25.73;;;16.05;;
30743;SDS011;17486;46.738;7.622;2022-12-18T10:12:13;28.42;;;16.45;;
30743;SDS011;17486;46.738;7.622;2022-12-18T10:15:03;25.75;;;15.65;;
30743;SDS011;17486;46.738;7.622;2022-12-18T10:28:29;134.15;;;72.32;;
30743;SDS011;17486;46.738;7.622;2022-12-18T10:30:56;66.53;;;36.53;;
30743;SDS011;17486;46.738;7.622;2022-12-18T10:33:23;40.20;;;24.58;;
30743;SDS011;17486;46.738;7.622;2022-12-18T10:35:52;32.08;;;19.75;;
30743;SDS011;17486;46.738;7.622;2022-12-18T10:43:20;31.17;;;16.15;;
30743;SDS011;17486;46.738;7.622;2022-12-18T10:46:01;26.13;;;16.67;;
30743;SDS011;17486;46.738;7.622;2022-12-18T10:48:50;26.00;;;16.60;;
30743;SDS011;17486;46.738;7.622;2022-12-18T10:51:23;30.60;;;16.98;;
30743;SDS011;17486;46.738;7.622;2022-12-18T10:53:56;29.90;;;17.90;;
30743;SDS011;17486;46.738;7.622;2022-12-18T10:56:24;26.65;;;16.55;;
30743;SDS011;17486;46.738;7.622;2022-12-18T10:59:00;27.40;;;17.42;;
30743;SDS011;17486;46.738;7.622;2022-12-18T11:01:27;27.17;;;16.20;;
30743;SDS011;17486;46.738;7.622;2022-12-18T11:06:22;24.15;;;15.00;;
30743;SDS011;17486;46.738;7.622;2022-12-18T11:09:06;18.73;;;11.95;;
30743;SDS011;17486;46.738;7.622;2022-12-18T11:11:51;16.08;;;11.20;;
30743;SDS011;17486;46.738;7.622;2022-12-18T11:14:23;18.17;;;10.88;;
30743;SDS011;17486;46.738;7.622;2022-12-18T11:16:52;16.63;;;11.45;;
30743;SDS011;17486;46.738;7.622;2022-12-18T11:21:44;92.45;;;55.22;;
30743;SDS011;17486;46.738;7.622;2022-12-18T11:27:05;112.28;;;65.53;;
30743;SDS011;17486;46.738;7.622;2022-12-18T11:29:43;66.50;;;40.90;;
30743;SDS011;17486;46.738;7.622;2022-12-18T11:34:45;27.15;;;17.27;;
30743;SDS011;17486;46.738;7.622;2022-12-18T11:37:13;20.50;;;13.20;;
30743;SDS011;17486;46.738;7.622;2022-12-18T11:39:40;19.42;;;13.02;;
30743;SDS011;17486;46.738;7.622;2022-12-18T11:42:12;18.50;;;12.43;;
30743;SDS011;17486;46.738;7.622;2022-12-18T11:44:57;17.60;;;11.85;;
30743;SDS011;17486;46.738;7.622;2022-12-18T11:50:47;16.13;;;11.02;;
30743;SDS011;17486;46.738;7.622;2022-12-18T11:53:16;18.63;;;11.85;;
30743;SDS011;17486;46.738;7.622;2022-12-18T11:58:44;17.98;;;11.85;;
30743;SDS011;17486;46.738;7.622;2022-12-18T12:10:05;21.98;;;14.43;;
30743;SDS011;17486;46.738;7.622;2022-12-18T12:15:45;123.63;;;80.93;;
30743;SDS011;17486;46.738;7.622;2022-12-18T12:20:57;121.80;;;70.43;;
30743;SDS011;17486;46.738;7.622;2022-12-18T12:34:34;18.52;;;12.13;;
30743;SDS011;17486;46.738;7.622;2022-12-18T12:40:18;20.23;;;11.90;;
30743;SDS011;17486;46.738;7.622;2022-12-18T12:42:46;17.58;;;11.68;;
30743;SDS011;17486;46.738;7.622;2022-12-18T12:45:53;16.33;;;10.73;;
30743;SDS011;17486;46.738;7.622;2022-12-18T12:51:20;19.13;;;11.82;;
30743;SDS011;17486;46.738;7.622;2022-12-18T12:53:49;16.90;;;11.83;;
30743;SDS011;17486;46.738;7.622;2022-12-18T12:56:16;17.58;;;11.85;;
30743;SDS011;17486;46.738;7.622;2022-12-18T12:58:46;18.90;;;12.95;;
30743;SDS011;17486;46.738;7.622;2022-12-18T13:03:55;19.10;;;11.30;;
30743;SDS011;17486;46.738;7.622;2022-12-18T13:06:37;19.88;;;11.90;;
30743;SDS011;17486;46.738;7.622;2022-12-18T13:09:10;17.13;;;11.30;;
30743;SDS011;17486;46.738;7.622;2022-12-18T13:11:40;18.55;;;11.90;;
30743;SDS011;17486;46.738;7.622;2022-12-18T13:17:16;145.00;;;93.15;;
30743;SDS011;17486;46.738;7.622;2022-12-18T13:19:42;300.27;;;175.27;;
30743;SDS011;17486;46.738;7.622;2022-12-18T13:22:21;240.75;;;136.40;;
30743;SDS011;17486;46.738;7.622;2022-12-18T13:24:48;168.82;;;99.95;;
30743;SDS011;17486;46.738;7.622;2022-12-18T13:30:50;35.42;;;22.80;;
30743;SDS011;17486;46.738;7.622;2022-12-18T13:36:09;17.38;;;12.32;;
30743;SDS011;17486;46.738;7.622;2022-12-18T13:38:35;16.98;;;11.30;;
30743;SDS011;17486;46.738;7.622;2022-12-18T13:41:03;16.73;;;11.45;;
30743;SDS011;17486;46.738;7.622;2022-12-18T13:43:53;16.13;;;11.77;;
30743;SDS011;17486;46.738;7.622;2022-12-18T13:46:29;15.80;;;11.20;;
30743;SDS011;17486;46.738;7.622;2022-12-18T13:51:43;18.30;;;12.52;;
30743;SDS011;17486;46.738;7.622;2022-12-18T13:57:00;19.38;;;12.07;;
30743;SDS011;17486;46.738;7.622;2022-12-18T13:59:35;17.63;;;11.85;;
30743;SDS011;17486;46.738;7.622;2022-12-18T14:02:11;16.77;;;11.38;;
30743;SDS011;17486;46.738;7.622;2022-12-18T14:04:38;19.45;;;12.30;;
30743;SDS011;17486;46.738;7.622;2022-12-18T14:07:04;17.55;;;11.50;;
30743;SDS011;17486;46.738;7.622;2022-12-18T14:09:36;18.80;;;13.07;;
30743;SDS011;17486;46.738;7.622;2022-12-18T14:12:06;17.38;;;12.45;;
30743;SDS011;17486;46.738;7.622;2022-12-18T14:14:56;18.55;;;11.95;;
30743;SDS011;17486;46.738;7.622;2022-12-18T14:17:21;17.92;;;12.73;;
30743;SDS011;17486;46.738;7.622;2022-12-18T14:19:49;22.30;;;12.95;;
30743;SDS011;17486;46.738;7.622;2022-12-18T14:22:20;17.83;;;12.02;;
30743;SDS011;17486;46.738;7.622;2022-12-18T14:25:26;17.83;;;12.13;;
30743;SDS011;17486;46.738;7.622;2022-12-18T14:28:31;20.85;;;13.38;;
30743;SDS011;17486;46.738;7.622;2022-12-18T14:30:32;17.63;;;12.50;;
30743;SDS011;17486;46.738;7.622;2022-12-18T14:33:14;19.52;;;12.45;;
30743;SDS011;17486;46.738;7.622;2022-12-18T14:40:47;16.58;;;12.02;;
30743;SDS011;17486;46.738;7.622;2022-12-18T14:43:17;16.73;;;12.15;;
30743;SDS011;17486;46.738;7.622;2022-12-18T14:45:42;17.95;;;12.48;;
30743;SDS011;17486;46.738;7.622;2022-12-18T14:51:00;26.13;;;18.02;;
30743;SDS011;17486;46.738;7.622;2022-12-18T14:56:02;194.77;;;126.38;;
30743;SDS011;17486;46.738;7.622;2022-12-18T14:58:36;102.45;;;62.58;;
30743;SDS011;17486;46.738;7.622;2022-12-18T15:01:01;46.92;;;29.67;;
30743;SDS011;17486;46.738;7.622;2022-12-18T15:03:26;28.52;;;18.30;;
30743;SDS011;17486;46.738;7.622;2022-12-18T15:05:52;20.35;;;14.48;;
30743;SDS011;17486;46.738;7.622;2022-12-18T15:08:31;20.65;;;14.10;;
30743;SDS011;17486;46.738;7.622;2022-12-18T15:11:00;21.63;;;13.82;;
30743;SDS011;17486;46.738;7.622;2022-12-18T15:13:26;22.92;;;14.05;;
30743;SDS011;17486;46.738;7.622;2022-12-18T15:15:52;21.83;;;14.45;;
30743;SDS011;17486;46.738;7.622;2022-12-18T15:18:20;20.08;;;13.20;;
30743;SDS011;17486;46.738;7.622;2022-12-18T15:23:26;17.63;;;13.13;;
30743;SDS011;17486;46.738;7.622;2022-12-18T15:26:00;21.45;;;14.57;;
30743;SDS011;17486;46.738;7.622;2022-12-18T15:28:30;20.73;;;14.70;;
30743;SDS011;17486;46.738;7.622;2022-12-18T15:31:03;23.30;;;15.20;;
30743;SDS011;17486;46.738;7.622;2022-12-18T15:33:40;20.77;;;14.43;;
30743;SDS011;17486;46.738;7.622;2022-12-18T15:36:29;22.20;;;14.55;;
30743;SDS011;17486;46.738;7.622;2022-12-18T15:38:55;20.17;;;14.85;;
30743;SDS011;17486;46.738;7.622;2022-12-18T15:41:22;21.10;;;15.15;;
30743;SDS011;17486;46.738;7.622;2022-12-18T15:43:49;20.50;;;15.07;;
30743;SDS011;17486;46.738;7.622;2022-12-18T15:48:42;23.83;;;16.55;;
30743;SDS011;17486;46.738;7.622;2022-12-18T15:51:17;21.98;;;16.38;;
30743;SDS011;17486;46.738;7.622;2022-12-18T15:53:45;23.60;;;16.30;;
30743;SDS011;17486;46.738;7.622;2022-12-18T15:56:13;91.78;;;58.95;;
30743;SDS011;17486;46.738;7.622;2022-12-18T15:58:58;542.08;;;356.55;;
30743;SDS011;17486;46.738;7.622;2022-12-18T16:01:26;380.88;;;225.85;;
30743;SDS011;17486;46.738;7.622;2022-12-18T16:03:53;216.15;;;120.10;;
30743;SDS011;17486;46.738;7.622;2022-12-18T16:06:19;103.22;;;58.60;;
30743;SDS011;17486;46.738;7.622;2022-12-18T16:08:45;49.47;;;30.35;;
30743;SDS011;17486;46.738;7.622;2022-12-18T16:11:19;28.83;;;19.38;;
30743;SDS011;17486;46.738;7.622;2022-12-18T16:16:36;20.45;;;15.27;;
30743;SDS011;17486;46.738;7.622;2022-12-18T16:19:01;25.08;;;17.15;;
30743;SDS011;17486;46.738;7.622;2022-12-18T16:21:27;23.00;;;15.73;;
30743;SDS011;17486;46.738;7.622;2022-12-18T16:23:52;24.55;;;15.45;;
30743;SDS011;17486;46.738;7.622;2022-12-18T16:26:17;23.63;;;15.18;;
30743;SDS011;17486;46.738;7.622;2022-12-18T16:28:43;23.08;;;15.80;;
30743;SDS011;17486;46.738;7.622;2022-12-18T16:31:08;19.27;;;13.65;;
30743;SDS011;17486;46.738;7.622;2022-12-18T16:33:34;20.98;;;14.25;;
30743;SDS011;17486;46.738;7.622;2022-12-18T16:35:59;21.15;;;14.57;;
30743;SDS011;17486;46.738;7.622;2022-12-18T16:38:24;20.30;;;14.55;;
30743;SDS011;17486;46.738;7.622;2022-12-18T16:40:50;21.83;;;15.13;;
30743;SDS011;17486;46.738;7.622;2022-12-18T16:43:34;22.98;;;15.70;;
30743;SDS011;17486;46.738;7.622;2022-12-18T16:45:59;24.67;;;16.13;;
30743;SDS011;17486;46.738;7.622;2022-12-18T16:48:25;21.60;;;15.55;;
30743;SDS011;17486;46.738;7.622;2022-12-18T16:50:51;23.30;;;15.48;;
30743;SDS011;17486;46.738;7.622;2022-12-18T16:53:26;20.30;;;14.80;;